Portada
METAR-TAF:

METAR-TAF

Aeroports :

Erevan, Armènia

latitud: 40-08-50N, longitud: 044-23-45E, altitud: 865 m

Observació

L'informe es va fer fa 28 minuts, a les 03:30 UTC
Vent 1 kt del Nord/Nord-Oest
Temperatura -6°C
Humitat 79%
Pressió 1022 hPa
Visibilitat: 2300 m
boirina

METAR: UDYZ 210330Z 34001KT 2300 BR NSC M06/M09 Q1022 R09/010070 NOSIG

Hora: 07:58 (03:58 UTC)

Pronòstic

L'informe es va fer fa 4 hores i 56 minuts, a les 23:02 UTC
Pronòstic vàlid del 21 a les 00 UTC al 21 a les 24 UTC
Vent 4 kt amb direcció variable
Visibilitat: 2000 m
boirina
Evolucionant progressivament
l' 21 a les 07 UTC al 21 a les 08 UTC
Vent 6 kt del Sud-Est
Visibilitat: 6000 m

TAF: UDYZ 202302Z 2100/2124 VRB04KT 2000 BR NSC BECMG 2107/2108 14006KT 6000 NSW

Observacions i pronòstics meteorològics de més de 4000 aeroports (METAR i TAF).

Les estacions disponibles són els punts grocs i vermells al mapa.

Posi el ratolí al punt desitjat per veure el nom de l'estació.

Feu clic per veure les observacions i els pronòstics meteorològics.

Per canviar el mapa: feu clic els botons verds amb una creu de color negre per apropar; al botó verd amb un guió per allunyar la imatge; o en les fletxes verdes per a mapes adjacents.


METAR-TAF: